sensor_id;sensor_type;location;lat;lon;timestamp;P1;durP1;ratioP1;P2;durP2;ratioP2
68579;SDS011;55555;52.136;5.424;2022-10-04T00:04:52;16.20;;;8.75;;
68579;SDS011;55555;52.136;5.424;2022-10-04T00:08:11;19.42;;;8.13;;
68579;SDS011;55555;52.136;5.424;2022-10-04T00:10:47;18.85;;;8.65;;
68579;SDS011;55555;52.136;5.424;2022-10-04T00:13:23;16.65;;;8.98;;
68579;SDS011;55555;52.136;5.424;2022-10-04T00:15:52;15.10;;;8.47;;
68579;SDS011;55555;52.136;5.424;2022-10-04T00:18:29;16.38;;;8.18;;
68579;SDS011;55555;52.136;5.424;2022-10-04T00:21:06;18.85;;;8.52;;
68579;SDS011;55555;52.136;5.424;2022-10-04T00:26:06;15.60;;;8.88;;
68579;SDS011;55555;52.136;5.424;2022-10-04T00:28:48;20.30;;;10.27;;
68579;SDS011;55555;52.136;5.424;2022-10-04T00:31:25;19.75;;;10.70;;
68579;SDS011;55555;52.136;5.424;2022-10-04T00:44:57;26.65;;;12.30;;
68579;SDS011;55555;52.136;5.424;2022-10-04T00:47:55;23.38;;;12.88;;
68579;SDS011;55555;52.136;5.424;2022-10-04T00:50:42;26.15;;;12.95;;
68579;SDS011;55555;52.136;5.424;2022-10-04T00:53:36;24.02;;;12.80;;
68579;SDS011;55555;52.136;5.424;2022-10-04T00:56:38;28.37;;;13.37;;
68579;SDS011;55555;52.136;5.424;2022-10-04T01:02:15;25.52;;;12.90;;
68579;SDS011;55555;52.136;5.424;2022-10-04T01:04:59;24.52;;;12.73;;
68579;SDS011;55555;52.136;5.424;2022-10-04T01:07:33;25.73;;;13.23;;
68579;SDS011;55555;52.136;5.424;2022-10-04T01:10:10;25.47;;;12.73;;
68579;SDS011;55555;52.136;5.424;2022-10-04T01:12:53;24.75;;;12.98;;
68579;SDS011;55555;52.136;5.424;2022-10-04T01:18:49;24.60;;;11.80;;
68579;SDS011;55555;52.136;5.424;2022-10-04T01:29:09;19.70;;;12.40;;
68579;SDS011;55555;52.136;5.424;2022-10-04T01:31:43;20.40;;;11.35;;
68579;SDS011;55555;52.136;5.424;2022-10-04T01:34:15;34.38;;;13.02;;
68579;SDS011;55555;52.136;5.424;2022-10-04T01:36:45;24.07;;;13.90;;
68579;SDS011;55555;52.136;5.424;2022-10-04T01:39:14;27.02;;;13.90;;
68579;SDS011;55555;52.136;5.424;2022-10-04T01:41:48;26.15;;;13.65;;
68579;SDS011;55555;52.136;5.424;2022-10-04T01:47:43;28.20;;;13.93;;
68579;SDS011;55555;52.136;5.424;2022-10-04T01:50:27;31.00;;;14.23;;
68579;SDS011;55555;52.136;5.424;2022-10-04T01:53:00;26.55;;;13.82;;
68579;SDS011;55555;52.136;5.424;2022-10-04T01:55:49;24.23;;;13.90;;
68579;SDS011;55555;52.136;5.424;2022-10-04T01:58:21;31.50;;;14.25;;
68579;SDS011;55555;52.136;5.424;2022-10-04T02:00:58;30.83;;;14.38;;
68579;SDS011;55555;52.136;5.424;2022-10-04T02:03:44;24.10;;;13.83;;
68579;SDS011;55555;52.136;5.424;2022-10-04T02:06:21;22.95;;;13.63;;
68579;SDS011;55555;52.136;5.424;2022-10-04T02:08:49;24.02;;;13.65;;
68579;SDS011;55555;52.136;5.424;2022-10-04T02:11:23;26.58;;;14.35;;
68579;SDS011;55555;52.136;5.424;2022-10-04T02:13:55;23.77;;;13.07;;
68579;SDS011;55555;52.136;5.424;2022-10-04T02:16:23;31.17;;;14.70;;
68579;SDS011;55555;52.136;5.424;2022-10-04T02:18:51;28.48;;;14.75;;
68579;SDS011;55555;52.136;5.424;2022-10-04T02:21:20;27.33;;;15.18;;
68579;SDS011;55555;52.136;5.424;2022-10-04T02:23:49;23.73;;;13.93;;
68579;SDS011;55555;52.136;5.424;2022-10-04T02:26:19;29.05;;;14.80;;
68579;SDS011;55555;52.136;5.424;2022-10-04T02:28:47;26.93;;;16.27;;
68579;SDS011;55555;52.136;5.424;2022-10-04T02:31:14;29.63;;;16.25;;
68579;SDS011;55555;52.136;5.424;2022-10-04T02:34:07;27.05;;;15.77;;
68579;SDS011;55555;52.136;5.424;2022-10-04T02:36:34;27.52;;;15.68;;
68579;SDS011;55555;52.136;5.424;2022-10-04T02:39:04;29.00;;;15.75;;
68579;SDS011;55555;52.136;5.424;2022-10-04T02:41:47;27.67;;;15.97;;
68579;SDS011;55555;52.136;5.424;2022-10-04T02:44:18;28.85;;;15.25;;
68579;SDS011;55555;52.136;5.424;2022-10-04T02:46:52;25.98;;;15.45;;
68579;SDS011;55555;52.136;5.424;2022-10-04T02:57:40;28.13;;;16.30;;
68579;SDS011;55555;52.136;5.424;2022-10-04T03:02:41;28.75;;;16.65;;
68579;SDS011;55555;52.136;5.424;2022-10-04T03:05:33;25.17;;;16.27;;
68579;SDS011;55555;52.136;5.424;2022-10-04T03:08:02;33.43;;;17.33;;
68579;SDS011;55555;52.136;5.424;2022-10-04T03:10:31;31.60;;;17.73;;
68579;SDS011;55555;52.136;5.424;2022-10-04T03:13:00;33.65;;;17.98;;
68579;SDS011;55555;52.136;5.424;2022-10-04T03:15:28;31.05;;;19.27;;
68579;SDS011;55555;52.136;5.424;2022-10-04T03:17:55;32.65;;;19.13;;
68579;SDS011;55555;52.136;5.424;2022-10-04T03:20:22;34.47;;;19.60;;
68579;SDS011;55555;52.136;5.424;2022-10-04T03:22:51;33.00;;;19.42;;
68579;SDS011;55555;52.136;5.424;2022-10-04T03:25:36;32.20;;;18.83;;
68579;SDS011;55555;52.136;5.424;2022-10-04T03:28:15;31.50;;;18.98;;
68579;SDS011;55555;52.136;5.424;2022-10-04T03:30:43;31.40;;;19.23;;
68579;SDS011;55555;52.136;5.424;2022-10-04T03:33:16;35.70;;;19.70;;
68579;SDS011;55555;52.136;5.424;2022-10-04T03:35:49;28.33;;;18.85;;
68579;SDS011;55555;52.136;5.424;2022-10-04T03:38:22;30.92;;;19.67;;
68579;SDS011;55555;52.136;5.424;2022-10-04T03:40:55;33.05;;;18.98;;
68579;SDS011;55555;52.136;5.424;2022-10-04T03:43:28;28.25;;;18.33;;
68579;SDS011;55555;52.136;5.424;2022-10-04T03:45:59;32.20;;;19.00;;
68579;SDS011;55555;52.136;5.424;2022-10-04T03:48:34;30.98;;;17.58;;
68579;SDS011;55555;52.136;5.424;2022-10-04T03:51:06;27.77;;;17.73;;
68579;SDS011;55555;52.136;5.424;2022-10-04T03:53:45;29.17;;;17.40;;
68579;SDS011;55555;52.136;5.424;2022-10-04T03:58:53;26.60;;;17.73;;
68579;SDS011;55555;52.136;5.424;2022-10-04T04:07:13;32.70;;;17.90;;
68579;SDS011;55555;52.136;5.424;2022-10-04T04:09:51;29.98;;;16.52;;
68579;SDS011;55555;52.136;5.424;2022-10-04T04:12:43;26.50;;;16.03;;
68579;SDS011;55555;52.136;5.424;2022-10-04T04:15:22;27.80;;;16.65;;
68579;SDS011;55555;52.136;5.424;2022-10-04T04:17:55;28.92;;;17.23;;
68579;SDS011;55555;52.136;5.424;2022-10-04T04:20:32;25.65;;;17.00;;
68579;SDS011;55555;52.136;5.424;2022-10-04T04:23:06;28.10;;;16.92;;
68579;SDS011;55555;52.136;5.424;2022-10-04T04:25:42;29.77;;;17.33;;
68579;SDS011;55555;52.136;5.424;2022-10-04T04:28:25;29.80;;;16.77;;
68579;SDS011;55555;52.136;5.424;2022-10-04T04:31:45;24.67;;;16.23;;
68579;SDS011;55555;52.136;5.424;2022-10-04T04:34:05;28.13;;;16.90;;
68579;SDS011;55555;52.136;5.424;2022-10-04T04:36:47;27.83;;;16.40;;
68579;SDS011;55555;52.136;5.424;2022-10-04T04:39:18;27.40;;;17.33;;
68579;SDS011;55555;52.136;5.424;2022-10-04T04:42:00;28.25;;;16.42;;
68579;SDS011;55555;52.136;5.424;2022-10-04T04:44:47;27.42;;;16.63;;
68579;SDS011;55555;52.136;5.424;2022-10-04T04:50:13;29.77;;;17.60;;
68579;SDS011;55555;52.136;5.424;2022-10-04T04:55:51;28.70;;;17.13;;
68579;SDS011;55555;52.136;5.424;2022-10-04T04:58:38;34.17;;;18.10;;
68579;SDS011;55555;52.136;5.424;2022-10-04T05:01:22;32.65;;;16.77;;
68579;SDS011;55555;52.136;5.424;2022-10-04T05:04:00;27.60;;;18.00;;
68579;SDS011;55555;52.136;5.424;2022-10-04T05:06:30;25.20;;;16.23;;
68579;SDS011;55555;52.136;5.424;2022-10-04T05:08:59;28.02;;;16.70;;
68579;SDS011;55555;52.136;5.424;2022-10-04T05:11:27;28.80;;;16.20;;
68579;SDS011;55555;52.136;5.424;2022-10-04T05:14:08;27.08;;;17.15;;
68579;SDS011;55555;52.136;5.424;2022-10-04T05:19:13;26.30;;;16.97;;
68579;SDS011;55555;52.136;5.424;2022-10-04T05:21:53;24.92;;;16.45;;
68579;SDS011;55555;52.136;5.424;2022-10-04T05:27:02;29.15;;;16.73;;
68579;SDS011;55555;52.136;5.424;2022-10-04T05:29:39;28.30;;;16.70;;
68579;SDS011;55555;52.136;5.424;2022-10-04T05:35:17;30.15;;;18.08;;
68579;SDS011;55555;52.136;5.424;2022-10-04T05:43:44;31.80;;;18.42;;
68579;SDS011;55555;52.136;5.424;2022-10-04T05:48:54;33.38;;;20.48;;
68579;SDS011;55555;52.136;5.424;2022-10-04T05:53:59;41.22;;;21.17;;
68579;SDS011;55555;52.136;5.424;2022-10-04T06:05:13;38.17;;;20.33;;
68579;SDS011;55555;52.136;5.424;2022-10-04T06:22:22;39.58;;;22.20;;
68579;SDS011;55555;52.136;5.424;2022-10-04T06:27:39;39.43;;;22.00;;
68579;SDS011;55555;52.136;5.424;2022-10-04T06:30:13;41.42;;;21.90;;
68579;SDS011;55555;52.136;5.424;2022-10-04T06:41:29;44.87;;;21.80;;
68579;SDS011;55555;52.136;5.424;2022-10-04T06:53:01;34.20;;;21.55;;
68579;SDS011;55555;52.136;5.424;2022-10-04T07:01:26;41.90;;;24.13;;
68579;SDS011;55555;52.136;5.424;2022-10-04T07:04:18;40.67;;;23.50;;
68579;SDS011;55555;52.136;5.424;2022-10-04T07:07:22;42.60;;;23.13;;
68579;SDS011;55555;52.136;5.424;2022-10-04T07:12:42;38.78;;;22.90;;
68579;SDS011;55555;52.136;5.424;2022-10-04T07:15:47;39.17;;;22.80;;
68579;SDS011;55555;52.136;5.424;2022-10-04T07:18:28;38.60;;;22.92;;
68579;SDS011;55555;52.136;5.424;2022-10-04T07:21:11;35.05;;;19.95;;
68579;SDS011;55555;52.136;5.424;2022-10-04T07:26:23;35.22;;;20.23;;
68579;SDS011;55555;52.136;5.424;2022-10-04T07:29:00;31.50;;;18.27;;
68579;SDS011;55555;52.136;5.424;2022-10-04T07:31:49;39.53;;;19.20;;
68579;SDS011;55555;52.136;5.424;2022-10-04T07:34:31;37.35;;;18.63;;
68579;SDS011;55555;52.136;5.424;2022-10-04T07:37:08;30.97;;;18.90;;
68579;SDS011;55555;52.136;5.424;2022-10-04T07:42:28;29.98;;;17.48;;
68579;SDS011;55555;52.136;5.424;2022-10-04T07:45:09;35.78;;;17.10;;
68579;SDS011;55555;52.136;5.424;2022-10-04T07:47:45;26.13;;;16.60;;
68579;SDS011;55555;52.136;5.424;2022-10-04T07:50:21;32.60;;;17.27;;
68579;SDS011;55555;52.136;5.424;2022-10-04T07:53:12;23.65;;;16.02;;
68579;SDS011;55555;52.136;5.424;2022-10-04T07:55:59;31.90;;;16.60;;
68579;SDS011;55555;52.136;5.424;2022-10-04T07:58:41;23.63;;;14.05;;
68579;SDS011;55555;52.136;5.424;2022-10-04T08:01:46;28.00;;;14.93;;
68579;SDS011;55555;52.136;5.424;2022-10-04T08:04:50;30.10;;;13.93;;
68579;SDS011;55555;52.136;5.424;2022-10-04T08:08:07;24.92;;;14.15;;
68579;SDS011;55555;52.136;5.424;2022-10-04T08:11:00;22.60;;;13.48;;
68579;SDS011;55555;52.136;5.424;2022-10-04T08:16:46;23.27;;;13.80;;
68579;SDS011;55555;52.136;5.424;2022-10-04T08:19:26;24.67;;;12.53;;
68579;SDS011;55555;52.136;5.424;2022-10-04T08:22:14;22.77;;;12.55;;
68579;SDS011;55555;52.136;5.424;2022-10-04T08:28:12;24.02;;;13.40;;
68579;SDS011;55555;52.136;5.424;2022-10-04T08:31:14;23.20;;;11.18;;
68579;SDS011;55555;52.136;5.424;2022-10-04T08:34:23;18.27;;;10.90;;
68579;SDS011;55555;52.136;5.424;2022-10-04T08:40:48;22.85;;;11.25;;
68579;SDS011;55555;52.136;5.424;2022-10-04T08:50:33;16.23;;;9.57;;
68579;SDS011;55555;52.136;5.424;2022-10-04T09:02:46;18.50;;;10.00;;
68579;SDS011;55555;52.136;5.424;2022-10-04T09:05:45;18.17;;;10.73;;
68579;SDS011;55555;52.136;5.424;2022-10-04T09:08:55;20.25;;;9.55;;
68579;SDS011;55555;52.136;5.424;2022-10-04T09:18:28;17.63;;;8.90;;
68579;SDS011;55555;52.136;5.424;2022-10-04T09:30:22;17.33;;;9.10;;
68579;SDS011;55555;52.136;5.424;2022-10-04T09:39:15;15.05;;;9.15;;
68579;SDS011;55555;52.136;5.424;2022-10-04T09:42:06;16.48;;;9.10;;
68579;SDS011;55555;52.136;5.424;2022-10-04T09:47:42;17.85;;;8.00;;
68579;SDS011;55555;52.136;5.424;2022-10-04T09:56:21;16.65;;;8.13;;
68579;SDS011;55555;52.136;5.424;2022-10-04T10:05:27;15.40;;;7.63;;
68579;SDS011;55555;52.136;5.424;2022-10-04T10:11:28;13.60;;;7.93;;
68579;SDS011;55555;52.136;5.424;2022-10-04T10:17:29;13.52;;;7.50;;
68579;SDS011;55555;52.136;5.424;2022-10-04T10:26:39;15.10;;;8.13;;
68579;SDS011;55555;52.136;5.424;2022-10-04T10:32:43;15.90;;;8.32;;
68579;SDS011;55555;52.136;5.424;2022-10-04T10:35:53;16.13;;;7.50;;
68579;SDS011;55555;52.136;5.424;2022-10-04T10:42:24;15.10;;;7.45;;
68579;SDS011;55555;52.136;5.424;2022-10-04T10:48:22;12.68;;;6.45;;
68579;SDS011;55555;52.136;5.424;2022-10-04T10:51:17;15.27;;;7.10;;
68579;SDS011;55555;52.136;5.424;2022-10-04T11:01:22;12.27;;;6.13;;
68579;SDS011;55555;52.136;5.424;2022-10-04T11:14:13;10.38;;;5.35;;
68579;SDS011;55555;52.136;5.424;2022-10-04T11:17:00;12.85;;;5.75;;
68579;SDS011;55555;52.136;5.424;2022-10-04T11:20:22;8.98;;;4.82;;
68579;SDS011;55555;52.136;5.424;2022-10-04T11:34:32;11.52;;;5.13;;
68579;SDS011;55555;52.136;5.424;2022-10-04T11:37:38;11.90;;;5.80;;
68579;SDS011;55555;52.136;5.424;2022-10-04T11:43:24;13.18;;;5.00;;
68579;SDS011;55555;52.136;5.424;2022-10-04T11:46:17;13.27;;;6.00;;
68579;SDS011;55555;52.136;5.424;2022-10-04T11:49:08;16.10;;;5.70;;
68579;SDS011;55555;52.136;5.424;2022-10-04T11:57:45;11.23;;;5.53;;
68579;SDS011;55555;52.136;5.424;2022-10-04T12:00:21;11.35;;;5.57;;
68579;SDS011;55555;52.136;5.424;2022-10-04T12:03:10;11.35;;;5.90;;
68579;SDS011;55555;52.136;5.424;2022-10-04T12:06:17;10.23;;;5.17;;
68579;SDS011;55555;52.136;5.424;2022-10-04T12:09:18;9.57;;;5.22;;
68579;SDS011;55555;52.136;5.424;2022-10-04T12:17:45;11.90;;;5.95;;
68579;SDS011;55555;52.136;5.424;2022-10-04T12:24:07;12.38;;;4.70;;
68579;SDS011;55555;52.136;5.424;2022-10-04T12:33:00;9.88;;;5.25;;
68579;SDS011;55555;52.136;5.424;2022-10-04T12:35:46;11.37;;;5.00;;
68579;SDS011;55555;52.136;5.424;2022-10-04T12:38:40;12.98;;;4.75;;
68579;SDS011;55555;52.136;5.424;2022-10-04T12:44:40;10.43;;;5.03;;
68579;SDS011;55555;52.136;5.424;2022-10-04T12:50:24;13.13;;;4.50;;
68579;SDS011;55555;52.136;5.424;2022-10-04T12:56:14;9.88;;;5.00;;
68579;SDS011;55555;52.136;5.424;2022-10-04T12:59:29;11.82;;;4.72;;
68579;SDS011;55555;52.136;5.424;2022-10-04T13:29:19;10.80;;;4.50;;
68579;SDS011;55555;52.136;5.424;2022-10-04T13:32:29;12.65;;;4.80;;
68579;SDS011;55555;52.136;5.424;2022-10-04T13:47:10;11.05;;;4.32;;
68579;SDS011;55555;52.136;5.424;2022-10-04T13:56:13;13.57;;;5.03;;
68579;SDS011;55555;52.136;5.424;2022-10-04T13:59:04;10.00;;;4.53;;
68579;SDS011;55555;52.136;5.424;2022-10-04T14:01:55;13.02;;;4.80;;
68579;SDS011;55555;52.136;5.424;2022-10-04T14:14:21;9.25;;;4.00;;
68579;SDS011;55555;52.136;5.424;2022-10-04T14:17:52;11.00;;;4.85;;
68579;SDS011;55555;52.136;5.424;2022-10-04T14:32:55;10.02;;;4.80;;
68579;SDS011;55555;52.136;5.424;2022-10-04T14:35:42;14.67;;;4.63;;
68579;SDS011;55555;52.136;5.424;2022-10-04T14:39:08;10.73;;;5.05;;
68579;SDS011;55555;52.136;5.424;2022-10-04T14:48:13;12.43;;;5.43;;
68579;SDS011;55555;52.136;5.424;2022-10-04T14:54:14;10.68;;;5.55;;
68579;SDS011;55555;52.136;5.424;2022-10-04T14:57:06;11.40;;;4.97;;
68579;SDS011;55555;52.136;5.424;2022-10-04T15:00:16;13.68;;;5.30;;
68579;SDS011;55555;52.136;5.424;2022-10-04T15:02:48;13.10;;;5.20;;
68579;SDS011;55555;52.136;5.424;2022-10-04T15:10:47;13.40;;;4.22;;
68579;SDS011;55555;52.136;5.424;2022-10-04T15:13:26;12.52;;;4.43;;
68579;SDS011;55555;52.136;5.424;2022-10-04T15:18:47;10.77;;;4.70;;
68579;SDS011;55555;52.136;5.424;2022-10-04T15:26:49;8.15;;;4.10;;
68579;SDS011;55555;52.136;5.424;2022-10-04T15:32:26;11.33;;;4.43;;
68579;SDS011;55555;52.136;5.424;2022-10-04T15:51:04;11.93;;;4.85;;
68579;SDS011;55555;52.136;5.424;2022-10-04T16:00:02;12.40;;;4.45;;
68579;SDS011;55555;52.136;5.424;2022-10-04T16:06:21;11.30;;;4.70;;
68579;SDS011;55555;52.136;5.424;2022-10-04T16:12:14;16.20;;;5.00;;
68579;SDS011;55555;52.136;5.424;2022-10-04T16:14:56;12.50;;;4.53;;
68579;SDS011;55555;52.136;5.424;2022-10-04T16:17:52;14.00;;;5.10;;
68579;SDS011;55555;52.136;5.424;2022-10-04T16:32:36;9.23;;;4.63;;
68579;SDS011;55555;52.136;5.424;2022-10-04T16:35:15;13.82;;;4.97;;
68579;SDS011;55555;52.136;5.424;2022-10-04T16:38:14;10.35;;;4.32;;
68579;SDS011;55555;52.136;5.424;2022-10-04T16:57:26;13.30;;;5.30;;
68579;SDS011;55555;52.136;5.424;2022-10-04T16:59:55;9.93;;;5.00;;
68579;SDS011;55555;52.136;5.424;2022-10-04T17:27:45;10.77;;;5.10;;
68579;SDS011;55555;52.136;5.424;2022-10-04T17:30:26;8.40;;;4.55;;
68579;SDS011;55555;52.136;5.424;2022-10-04T17:33:18;15.35;;;5.13;;
68579;SDS011;55555;52.136;5.424;2022-10-04T17:36:03;13.20;;;5.95;;
68579;SDS011;55555;52.136;5.424;2022-10-04T17:38:46;12.50;;;4.95;;
68579;SDS011;55555;52.136;5.424;2022-10-04T17:42:39;13.90;;;5.60;;
68579;SDS011;55555;52.136;5.424;2022-10-04T17:45:11;10.82;;;5.38;;
68579;SDS011;55555;52.136;5.424;2022-10-04T17:47:55;11.30;;;5.38;;
68579;SDS011;55555;52.136;5.424;2022-10-04T17:50:57;9.40;;;5.50;;
68579;SDS011;55555;52.136;5.424;2022-10-04T17:53:54;11.68;;;5.78;;
68579;SDS011;55555;52.136;5.424;2022-10-04T17:57:09;12.47;;;5.33;;
68579;SDS011;55555;52.136;5.424;2022-10-04T17:59:49;12.18;;;4.90;;
68579;SDS011;55555;52.136;5.424;2022-10-04T18:02:53;13.68;;;5.35;;
68579;SDS011;55555;52.136;5.424;2022-10-04T18:05:34;11.10;;;5.93;;
68579;SDS011;55555;52.136;5.424;2022-10-04T18:08:27;13.23;;;5.68;;
68579;SDS011;55555;52.136;5.424;2022-10-04T18:11:42;16.20;;;6.70;;
68579;SDS011;55555;52.136;5.424;2022-10-04T18:17:04;15.02;;;6.00;;
68579;SDS011;55555;52.136;5.424;2022-10-04T18:22:18;11.02;;;5.75;;
68579;SDS011;55555;52.136;5.424;2022-10-04T18:24:47;9.90;;;5.70;;
68579;SDS011;55555;52.136;5.424;2022-10-04T18:27:46;12.00;;;5.65;;
68579;SDS011;55555;52.136;5.424;2022-10-04T18:33:23;11.45;;;5.88;;
68579;SDS011;55555;52.136;5.424;2022-10-04T18:36:18;12.73;;;6.05;;
68579;SDS011;55555;52.136;5.424;2022-10-04T18:41:43;11.70;;;6.28;;
68579;SDS011;55555;52.136;5.424;2022-10-04T18:44:22;15.05;;;5.95;;
68579;SDS011;55555;52.136;5.424;2022-10-04T18:46:58;13.25;;;5.93;;
68579;SDS011;55555;52.136;5.424;2022-10-04T18:49:26;12.05;;;5.88;;
68579;SDS011;55555;52.136;5.424;2022-10-04T19:10:39;13.75;;;5.88;;
68579;SDS011;55555;52.136;5.424;2022-10-04T19:16:58;13.80;;;6.32;;
68579;SDS011;55555;52.136;5.424;2022-10-04T19:20:21;12.68;;;6.20;;
68579;SDS011;55555;52.136;5.424;2022-10-04T19:25:46;13.95;;;7.03;;
68579;SDS011;55555;52.136;5.424;2022-10-04T19:28:40;11.50;;;6.78;;
68579;SDS011;55555;52.136;5.424;2022-10-04T19:34:10;12.77;;;6.05;;
68579;SDS011;55555;52.136;5.424;2022-10-04T19:36:49;13.60;;;6.47;;
68579;SDS011;55555;52.136;5.424;2022-10-04T19:39:31;15.23;;;6.70;;
68579;SDS011;55555;52.136;5.424;2022-10-04T19:42:13;12.85;;;6.35;;
68579;SDS011;55555;52.136;5.424;2022-10-04T19:50:56;13.70;;;6.33;;
68579;SDS011;55555;52.136;5.424;2022-10-04T19:53:45;11.75;;;6.50;;
68579;SDS011;55555;52.136;5.424;2022-10-04T19:56:16;18.95;;;7.13;;
68579;SDS011;55555;52.136;5.424;2022-10-04T19:59:02;13.30;;;6.05;;
68579;SDS011;55555;52.136;5.424;2022-10-04T20:01:51;12.15;;;6.30;;
68579;SDS011;55555;52.136;5.424;2022-10-04T20:04:18;13.03;;;6.63;;
68579;SDS011;55555;52.136;5.424;2022-10-04T20:07:01;13.20;;;5.88;;
68579;SDS011;55555;52.136;5.424;2022-10-04T20:12:33;10.57;;;6.07;;
68579;SDS011;55555;52.136;5.424;2022-10-04T20:18:00;11.03;;;6.10;;
68579;SDS011;55555;52.136;5.424;2022-10-04T20:23:05;11.98;;;6.15;;
68579;SDS011;55555;52.136;5.424;2022-10-04T20:30:53;11.67;;;5.90;;
68579;SDS011;55555;52.136;5.424;2022-10-04T20:36:00;9.80;;;5.63;;
68579;SDS011;55555;52.136;5.424;2022-10-04T20:43:55;10.97;;;6.20;;
68579;SDS011;55555;52.136;5.424;2022-10-04T20:46:34;10.20;;;6.07;;
68579;SDS011;55555;52.136;5.424;2022-10-04T20:49:04;11.93;;;6.30;;
68579;SDS011;55555;52.136;5.424;2022-10-04T20:51:47;13.85;;;6.18;;
68579;SDS011;55555;52.136;5.424;2022-10-04T20:54:15;10.63;;;5.90;;
68579;SDS011;55555;52.136;5.424;2022-10-04T20:56:45;13.63;;;6.90;;
68579;SDS011;55555;52.136;5.424;2022-10-04T20:59:15;13.00;;;6.47;;
68579;SDS011;55555;52.136;5.424;2022-10-04T21:01:58;11.73;;;6.43;;
68579;SDS011;55555;52.136;5.424;2022-10-04T21:04:31;13.55;;;7.15;;
68579;SDS011;55555;52.136;5.424;2022-10-04T21:07:07;12.35;;;6.05;;
68579;SDS011;55555;52.136;5.424;2022-10-04T21:09:38;12.93;;;6.13;;
68579;SDS011;55555;52.136;5.424;2022-10-04T21:12:52;12.40;;;6.25;;
68579;SDS011;55555;52.136;5.424;2022-10-04T21:15:11;13.15;;;6.10;;
68579;SDS011;55555;52.136;5.424;2022-10-04T21:18:03;13.27;;;6.55;;
68579;SDS011;55555;52.136;5.424;2022-10-04T21:23:15;12.60;;;6.23;;
68579;SDS011;55555;52.136;5.424;2022-10-04T21:28:55;13.27;;;6.30;;
68579;SDS011;55555;52.136;5.424;2022-10-04T21:31:23;11.10;;;6.13;;
68579;SDS011;55555;52.136;5.424;2022-10-04T21:33:51;11.18;;;5.65;;
68579;SDS011;55555;52.136;5.424;2022-10-04T21:36:18;13.47;;;5.93;;
68579;SDS011;55555;52.136;5.424;2022-10-04T21:38:45;11.27;;;6.13;;
68579;SDS011;55555;52.136;5.424;2022-10-04T21:41:12;12.23;;;6.50;;
68579;SDS011;55555;52.136;5.424;2022-10-04T21:43:39;12.18;;;6.13;;
68579;SDS011;55555;52.136;5.424;2022-10-04T21:46:05;12.40;;;6.97;;
68579;SDS011;55555;52.136;5.424;2022-10-04T21:48:32;14.20;;;5.90;;
68579;SDS011;55555;52.136;5.424;2022-10-04T21:50:59;10.82;;;6.07;;
68579;SDS011;55555;52.136;5.424;2022-10-04T21:53:26;12.75;;;7.13;;
68579;SDS011;55555;52.136;5.424;2022-10-04T21:55:53;11.52;;;6.15;;
68579;SDS011;55555;52.136;5.424;2022-10-04T21:58:20;13.75;;;6.82;;
68579;SDS011;55555;52.136;5.424;2022-10-04T22:00:47;12.93;;;6.83;;
68579;SDS011;55555;52.136;5.424;2022-10-04T22:03:14;14.18;;;6.53;;
68579;SDS011;55555;52.136;5.424;2022-10-04T22:05:41;12.30;;;6.57;;
68579;SDS011;55555;52.136;5.424;2022-10-04T22:08:08;12.43;;;6.80;;
68579;SDS011;55555;52.136;5.424;2022-10-04T22:10:35;11.88;;;7.10;;
68579;SDS011;55555;52.136;5.424;2022-10-04T22:13:02;13.50;;;6.90;;
68579;SDS011;55555;52.136;5.424;2022-10-04T22:15:29;16.75;;;7.35;;
68579;SDS011;55555;52.136;5.424;2022-10-04T22:17:56;15.93;;;6.75;;
68579;SDS011;55555;52.136;5.424;2022-10-04T22:20:23;11.93;;;6.32;;
68579;SDS011;55555;52.136;5.424;2022-10-04T22:22:51;14.80;;;7.30;;
68579;SDS011;55555;52.136;5.424;2022-10-04T22:25:21;16.07;;;7.80;;
68579;SDS011;55555;52.136;5.424;2022-10-04T22:27:50;12.80;;;6.88;;
68579;SDS011;55555;52.136;5.424;2022-10-04T22:32:55;12.20;;;7.00;;
68579;SDS011;55555;52.136;5.424;2022-10-04T22:35:27;15.15;;;7.20;;
68579;SDS011;55555;52.136;5.424;2022-10-04T22:37:56;13.93;;;8.00;;
68579;SDS011;55555;52.136;5.424;2022-10-04T22:40:25;14.80;;;7.68;;
68579;SDS011;55555;52.136;5.424;2022-10-04T22:42:54;13.73;;;7.70;;
68579;SDS011;55555;52.136;5.424;2022-10-04T22:45:24;14.93;;;7.53;;
68579;SDS011;55555;52.136;5.424;2022-10-04T22:47:55;17.67;;;8.40;;
68579;SDS011;55555;52.136;5.424;2022-10-04T22:53:02;15.23;;;8.15;;
68579;SDS011;55555;52.136;5.424;2022-10-04T22:55:50;19.15;;;7.80;;
68579;SDS011;55555;52.136;5.424;2022-10-04T22:58:20;13.60;;;8.27;;
68579;SDS011;55555;52.136;5.424;2022-10-04T23:00:47;17.23;;;7.90;;
68579;SDS011;55555;52.136;5.424;2022-10-04T23:03:30;14.67;;;7.53;;
68579;SDS011;55555;52.136;5.424;2022-10-04T23:05:59;14.45;;;7.90;;
68579;SDS011;55555;52.136;5.424;2022-10-04T23:08:28;15.70;;;8.85;;
68579;SDS011;55555;52.136;5.424;2022-10-04T23:10:56;13.32;;;8.02;;
68579;SDS011;55555;52.136;5.424;2022-10-04T23:13:25;17.08;;;7.35;;
68579;SDS011;55555;52.136;5.424;2022-10-04T23:15:56;15.97;;;8.00;;
68579;SDS011;55555;52.136;5.424;2022-10-04T23:18:27;13.65;;;8.35;;
68579;SDS011;55555;52.136;5.424;2022-10-04T23:20:55;17.10;;;8.20;;
68579;SDS011;55555;52.136;5.424;2022-10-04T23:23:26;16.30;;;8.43;;
68579;SDS011;55555;52.136;5.424;2022-10-04T23:25:54;14.68;;;8.82;;
68579;SDS011;55555;52.136;5.424;2022-10-04T23:28:22;16.33;;;7.97;;
68579;SDS011;55555;52.136;5.424;2022-10-04T23:31:03;17.23;;;8.80;;
68579;SDS011;55555;52.136;5.424;2022-10-04T23:33:40;14.05;;;8.07;;
68579;SDS011;55555;52.136;5.424;2022-10-04T23:36:09;15.10;;;7.80;;
68579;SDS011;55555;52.136;5.424;2022-10-04T23:38:39;14.85;;;8.43;;
68579;SDS011;55555;52.136;5.424;2022-10-04T23:41:13;14.87;;;8.57;;
68579;SDS011;55555;52.136;5.424;2022-10-04T23:43:40;17.27;;;8.40;;
68579;SDS011;55555;52.136;5.424;2022-10-04T23:46:10;17.02;;;8.18;;
68579;SDS011;55555;52.136;5.424;2022-10-04T23:48:41;15.35;;;8.45;;
68579;SDS011;55555;52.136;5.424;2022-10-04T23:51:13;12.45;;;7.97;;
68579;SDS011;55555;52.136;5.424;2022-10-04T23:53:44;12.73;;;7.53;;
68579;SDS011;55555;52.136;5.424;2022-10-04T23:56:21;15.43;;;7.80;;
68579;SDS011;55555;52.136;5.424;2022-10-04T23:58:51;14.95;;;7.00;;
